createdAt,value
2019-01-29T00:02:19.661Z,31.87
2019-01-29T00:04:47.936Z,33.33
2019-01-29T00:07:16.234Z,35.10
2019-01-29T00:09:44.523Z,34.53
2019-01-29T00:12:12.820Z,34.80
2019-01-29T00:14:41.107Z,34.70
2019-01-29T00:17:09.642Z,36.30
2019-01-29T00:19:37.938Z,38.63
2019-01-29T00:22:06.305Z,35.83
2019-01-29T00:24:34.593Z,35.67
2019-01-29T00:27:02.904Z,35.47
2019-01-29T00:29:31.189Z,37.10
2019-01-29T00:31:59.744Z,36.67
2019-01-29T00:34:28.275Z,35.60
2019-01-29T00:36:56.807Z,37.73
2019-01-29T00:39:25.357Z,35.70
2019-01-29T00:41:53.648Z,30.77
2019-01-29T00:44:21.974Z,1999.90
2019-01-29T00:46:50.280Z,1999.90
2019-01-29T00:49:18.605Z,1999.90
2019-01-29T00:51:46.976Z,1999.90
2019-01-29T00:54:15.546Z,1999.90
2019-01-29T00:56:43.843Z,1999.90
2019-01-29T00:59:12.538Z,1999.90
2019-01-29T01:01:40.761Z,1999.90
2019-01-29T01:04:09.097Z,1999.90
2019-01-29T01:06:37.391Z,1999.90
2019-01-29T01:09:08.199Z,1999.90
2019-01-29T01:11:36.572Z,1999.90
2019-01-29T01:14:05.018Z,1999.90
2019-01-29T01:16:33.313Z,1999.90
2019-01-29T01:19:01.880Z,1999.90
2019-01-29T01:21:30.265Z,1999.90
2019-01-29T01:23:58.834Z,1999.90
2019-01-29T01:26:27.421Z,1999.90
2019-01-29T01:28:56.003Z,1999.90
2019-01-29T01:31:24.333Z,1999.90
2019-01-29T01:33:52.627Z,1999.90
2019-01-29T01:36:21.207Z,1999.90
2019-01-29T01:38:49.530Z,1999.90
2019-01-29T01:41:17.929Z,1999.90
2019-01-29T01:43:46.496Z,1999.90
2019-01-29T01:46:14.819Z,1999.90
2019-01-29T01:48:43.128Z,1999.90
2019-01-29T01:51:11.456Z,1999.90
2019-01-29T01:53:39.761Z,1999.90
2019-01-29T01:56:08.065Z,1999.90
2019-01-29T01:58:36.372Z,1999.90
2019-01-29T02:01:04.858Z,1999.90
2019-01-29T02:03:33.162Z,1999.90
2019-01-29T02:06:01.720Z,1999.90
2019-01-29T02:08:30.205Z,1999.90
2019-01-29T02:10:58.776Z,1999.90
2019-01-29T02:13:28.314Z,1999.90
2019-01-29T02:15:56.611Z,1999.90
2019-01-29T02:18:24.914Z,1999.90
2019-01-29T02:20:53.216Z,1999.90
2019-01-29T02:23:21.827Z,1999.90
2019-01-29T02:25:50.368Z,1999.90
2019-01-29T02:28:18.770Z,1999.90
2019-01-29T02:30:47.089Z,1999.90
2019-01-29T02:33:15.502Z,1999.90
2019-01-29T02:35:43.820Z,1999.90
2019-01-29T02:38:12.126Z,1999.90
2019-01-29T02:40:40.440Z,1999.90
2019-01-29T02:43:08.735Z,1999.90
2019-01-29T02:45:37.061Z,1999.90
2019-01-29T02:48:05.435Z,1999.90
2019-01-29T02:50:33.754Z,1999.90
2019-01-29T02:53:02.076Z,1999.90
2019-01-29T02:55:30.685Z,1999.90
2019-01-29T02:57:59.317Z,1999.90
2019-01-29T03:00:28.747Z,1999.90
2019-01-29T03:02:57.059Z,1999.90
2019-01-29T03:05:25.473Z,1999.90
2019-01-29T03:07:53.847Z,1999.90
2019-01-29T03:10:25.180Z,1999.90
2019-01-29T03:12:53.489Z,1999.90
2019-01-29T03:15:24.788Z,1999.90
2019-01-29T03:17:53.184Z,1999.90
2019-01-29T03:20:21.490Z,1999.90
2019-01-29T03:22:49.879Z,1999.90
2019-01-29T03:25:18.183Z,1999.90
2019-01-29T03:27:46.503Z,1999.90
2019-01-29T03:30:17.060Z,1999.90
2019-01-29T03:32:45.439Z,1999.90
2019-01-29T03:35:13.993Z,1999.90
2019-01-29T03:37:42.598Z,1999.90
2019-01-29T03:40:22.083Z,1999.90
2019-01-29T03:42:50.692Z,1999.90
2019-01-29T03:45:19.077Z,1999.90
2019-01-29T03:47:47.631Z,1999.90
2019-01-29T03:50:20.823Z,1999.90
2019-01-29T03:52:49.254Z,1999.90
2019-01-29T03:55:17.891Z,1999.90
2019-01-29T03:57:46.251Z,1999.90
2019-01-29T04:00:17.348Z,1999.90
2019-01-29T04:02:45.939Z,1999.90
2019-01-29T04:05:14.540Z,1999.90
2019-01-29T04:07:42.913Z,1999.90
2019-01-29T04:10:15.667Z,1999.90
2019-01-29T04:12:44.942Z,1999.90
2019-01-29T04:15:15.592Z,1999.90
2019-01-29T04:17:44.066Z,1999.90
2019-01-29T04:20:17.918Z,1999.90
2019-01-29T04:22:46.215Z,1999.90
2019-01-29T04:25:14.602Z,1999.90
2019-01-29T04:27:42.965Z,1999.90
2019-01-29T04:30:16.337Z,1999.90
2019-01-29T04:32:44.651Z,1999.90
2019-01-29T04:35:14.032Z,1999.90
2019-01-29T04:37:42.341Z,1999.90
2019-01-29T04:40:13.233Z,1999.90
2019-01-29T04:42:41.546Z,1999.90
2019-01-29T04:45:11.971Z,1999.90
2019-01-29T04:47:40.351Z,1999.90
2019-01-29T04:50:12.129Z,1999.90
2019-01-29T04:52:40.422Z,1999.90
2019-01-29T04:55:11.659Z,1999.90
2019-01-29T04:57:40.231Z,1999.90
2019-01-29T05:00:11.646Z,1999.90
2019-01-29T05:02:40.024Z,1999.90
2019-01-29T05:05:10.269Z,1999.90
2019-01-29T05:07:38.569Z,1999.90
2019-01-29T05:10:09.714Z,1999.90
2019-01-29T05:12:38.021Z,1999.90
2019-01-29T05:15:09.851Z,1999.90
2019-01-29T05:17:38.162Z,1999.90
2019-01-29T05:20:09.714Z,1999.90
2019-01-29T05:22:38.020Z,1999.90
2019-01-29T05:25:08.605Z,1999.90
2019-01-29T05:27:37.066Z,1999.90
2019-01-29T05:30:20.768Z,1999.90
2019-01-29T05:32:49.226Z,1999.90
2019-01-29T05:35:17.761Z,1999.90
2019-01-29T05:37:46.326Z,1999.90
2019-01-29T05:40:16.935Z,1999.90
2019-01-29T05:42:45.442Z,1999.90
2019-01-29T05:45:16.031Z,1999.90
2019-01-29T05:47:44.338Z,1999.90
2019-01-29T05:50:14.583Z,1999.90
2019-01-29T05:52:42.909Z,1999.90
2019-01-29T05:55:12.952Z,1999.90
2019-01-29T05:57:41.486Z,1999.90
2019-01-29T06:00:18.321Z,1999.90
2019-01-29T06:02:48.472Z,1999.90
2019-01-29T06:05:16.906Z,1999.90
2019-01-29T06:07:45.456Z,1999.90
2019-01-29T06:10:15.883Z,1999.90
2019-01-29T06:12:44.451Z,1999.90
2019-01-29T06:15:15.314Z,1999.90
2019-01-29T06:17:43.698Z,1999.90
2019-01-29T06:20:18.526Z,1999.90
2019-01-29T06:22:47.062Z,1999.90
2019-01-29T06:25:15.383Z,1999.90
2019-01-29T06:27:43.747Z,1999.90
2019-01-29T06:30:14.829Z,1999.90
2019-01-29T06:32:43.149Z,1999.90
2019-01-29T06:35:14.210Z,1999.90
2019-01-29T06:37:42.519Z,1999.90
2019-01-29T06:40:15.917Z,1999.90
2019-01-29T06:42:44.300Z,1999.90
2019-01-29T06:45:15.071Z,1999.90
2019-01-29T06:47:43.554Z,1999.90
2019-01-29T06:50:14.518Z,1999.90
2019-01-29T06:52:43.145Z,1999.90
2019-01-29T06:55:16.418Z,1999.90
2019-01-29T06:57:44.817Z,1999.90
2019-01-29T07:00:15.855Z,1999.90
2019-01-29T07:02:44.165Z,1999.90
2019-01-29T07:05:12.779Z,1999.90
2019-01-29T07:07:41.091Z,1999.90
2019-01-29T07:10:13.035Z,1999.90
2019-01-29T07:12:41.345Z,1999.90
2019-01-29T07:15:15.561Z,1999.90
2019-01-29T07:17:45.573Z,1999.90
2019-01-29T07:20:14.026Z,1999.90
2019-01-29T07:22:42.652Z,1999.90
2019-01-29T07:25:12.012Z,1999.90
2019-01-29T07:27:40.311Z,1999.90
2019-01-29T07:30:11.783Z,1999.90
2019-01-29T07:32:40.088Z,1999.90
2019-01-29T07:35:08.875Z,1999.90
2019-01-29T07:37:37.176Z,1999.90
2019-01-29T07:40:08.355Z,1999.90
2019-01-29T07:42:36.632Z,1999.90
2019-01-29T07:45:08.353Z,1999.90
2019-01-29T07:47:36.653Z,1999.90
2019-01-29T07:50:09.358Z,1999.90
2019-01-29T07:52:37.729Z,1999.90
2019-01-29T07:55:08.281Z,1999.90
2019-01-29T07:57:36.594Z,1999.90
2019-01-29T08:00:10.620Z,1999.90
2019-01-29T08:02:39.182Z,1999.90
2019-01-29T08:05:10.438Z,1999.90
2019-01-29T08:07:38.751Z,1999.90
2019-01-29T08:10:09.870Z,1999.90
2019-01-29T08:12:38.171Z,1999.90
2019-01-29T08:15:11.955Z,1999.90
2019-01-29T08:17:40.249Z,1999.90
2019-01-29T08:20:11.076Z,1999.90
2019-01-29T08:22:39.370Z,1999.90
2019-01-29T08:25:09.972Z,1999.90
2019-01-29T08:27:38.611Z,1999.90
2019-01-29T08:30:17.050Z,1999.90
2019-01-29T08:32:45.420Z,1999.90
2019-01-29T08:35:15.520Z,1999.90
2019-01-29T08:37:43.898Z,1999.90
2019-01-29T08:40:14.050Z,1999.90
2019-01-29T08:42:42.355Z,1999.90
2019-01-29T08:45:18.219Z,1999.90
2019-01-29T08:47:47.784Z,1999.90
2019-01-29T08:50:22.057Z,1999.90
2019-01-29T08:52:50.422Z,1999.90
2019-01-29T08:55:18.805Z,1999.90
2019-01-29T08:57:47.106Z,1999.90
2019-01-29T09:00:20.487Z,1999.90
2019-01-29T09:02:49.030Z,1999.90
2019-01-29T09:05:18.188Z,1999.90
2019-01-29T09:07:46.661Z,1999.90
2019-01-29T09:10:19.946Z,1999.90
2019-01-29T09:12:48.267Z,1999.90
2019-01-29T09:15:18.670Z,1999.90
2019-01-29T09:17:46.977Z,1999.90
2019-01-29T09:20:17.220Z,1999.90
2019-01-29T09:22:45.851Z,1999.90
2019-01-29T09:25:20.807Z,1999.90
2019-01-29T09:27:44.920Z,1999.90
2019-01-29T09:30:15.659Z,1999.90
2019-01-29T09:32:45.238Z,1999.90
2019-01-29T09:35:13.602Z,1999.90
2019-01-29T09:37:41.924Z,1999.90
2019-01-29T09:40:16.442Z,1999.90
2019-01-29T09:42:44.855Z,1999.90
2019-01-29T09:45:15.270Z,1999.90
2019-01-29T09:47:43.639Z,1999.90
2019-01-29T09:50:15.055Z,1999.90
2019-01-29T09:52:43.360Z,1999.90
2019-01-29T09:55:16.655Z,1999.90
2019-01-29T09:57:44.949Z,1999.90
2019-01-29T10:00:16.365Z,1999.90
2019-01-29T10:02:44.733Z,1999.90
2019-01-29T10:05:13.117Z,1999.90
2019-01-29T10:07:41.808Z,1999.90
2019-01-29T10:10:12.731Z,1999.90
2019-01-29T10:12:41.025Z,1999.90
2019-01-29T10:15:23.615Z,1999.90
2019-01-29T10:17:52.177Z,1999.90
2019-01-29T10:20:20.984Z,1999.90
2019-01-29T10:22:49.538Z,1999.90
2019-01-29T10:25:18.196Z,1999.90
2019-01-29T10:27:46.503Z,1999.90
2019-01-29T10:30:17.627Z,1999.90
2019-01-29T10:32:45.994Z,1999.90
2019-01-29T10:35:16.664Z,1999.90
2019-01-29T10:37:44.978Z,1999.90
2019-01-29T10:40:16.112Z,1999.90
2019-01-29T10:42:44.822Z,1999.90
2019-01-29T10:45:16.072Z,1999.90
2019-01-29T10:47:44.384Z,1999.90
2019-01-29T10:50:21.279Z,1999.90
2019-01-29T10:52:50.577Z,1999.90
2019-01-29T10:55:18.950Z,1999.90
2019-01-29T10:57:47.500Z,1999.90
2019-01-29T11:00:25.426Z,1999.90
2019-01-29T11:02:53.813Z,1999.90
2019-01-29T11:05:22.285Z,1999.90
2019-01-29T11:07:50.677Z,1999.90
2019-01-29T11:10:20.115Z,1999.90
2019-01-29T11:12:48.499Z,1999.90
2019-01-29T11:15:20.098Z,1999.90
2019-01-29T11:17:48.416Z,1999.90
2019-01-29T11:20:18.601Z,1999.90
2019-01-29T11:22:47.153Z,1999.90
2019-01-29T11:25:21.332Z,1999.90
2019-01-29T11:27:49.728Z,1999.90
2019-01-29T11:30:23.616Z,1999.90
2019-01-29T11:32:52.006Z,1999.90
2019-01-29T11:35:20.373Z,1999.90
2019-01-29T11:37:48.764Z,1999.90
2019-01-29T11:40:28.941Z,1999.90
2019-01-29T11:42:57.393Z,1999.90
2019-01-29T11:45:31.218Z,1999.90
2019-01-29T11:47:59.596Z,1999.90
2019-01-29T11:50:27.899Z,1999.90
2019-01-29T11:52:56.214Z,1999.90
2019-01-29T11:55:24.516Z,1999.90
2019-01-29T11:57:53.101Z,1999.90
2019-01-29T12:00:26.158Z,1999.90
2019-01-29T12:02:54.468Z,1999.90
2019-01-29T12:05:22.838Z,1999.90
2019-01-29T12:07:51.226Z,1999.90
2019-01-29T12:10:19.602Z,1999.90
2019-01-29T12:12:48.245Z,1999.90
2019-01-29T12:15:18.705Z,1999.90
2019-01-29T12:17:47.049Z,1999.90
2019-01-29T12:20:17.459Z,1999.90
2019-01-29T12:22:45.934Z,1999.90
2019-01-29T12:25:14.568Z,1999.90
2019-01-29T12:27:42.951Z,1999.90
2019-01-29T12:30:14.899Z,1999.90
2019-01-29T12:32:43.230Z,1999.90
2019-01-29T12:35:11.660Z,1999.90
2019-01-29T12:37:39.954Z,1999.90
2019-01-29T12:40:10.713Z,1999.90
2019-01-29T12:42:39.002Z,1999.90
2019-01-29T12:45:15.426Z,1999.90
2019-01-29T12:47:44.049Z,1999.90
2019-01-29T12:50:24.836Z,1999.90
2019-01-29T12:53:06.362Z,1999.90
2019-01-29T12:55:35.043Z,1999.90
2019-01-29T12:58:03.344Z,1999.90
2019-01-29T13:00:35.743Z,1999.90
2019-01-29T13:03:04.090Z,1999.90
2019-01-29T13:05:32.744Z,1999.90
2019-01-29T13:08:01.176Z,1999.90
2019-01-29T13:10:29.813Z,1999.90
2019-01-29T13:12:58.110Z,1999.90
2019-01-29T13:15:31.091Z,1999.90
2019-01-29T13:18:02.532Z,1999.90
2019-01-29T13:20:31.305Z,1999.90
2019-01-29T13:22:59.873Z,1999.90
2019-01-29T13:25:28.181Z,1999.90
2019-01-29T13:27:56.805Z,1999.90
2019-01-29T13:30:29.954Z,1999.90
2019-01-29T13:32:58.246Z,1999.90
2019-01-29T13:35:32.166Z,1999.90
2019-01-29T13:38:00.592Z,1999.90
2019-01-29T13:40:29.148Z,1999.90
2019-01-29T13:42:57.695Z,1999.90
2019-01-29T13:45:26.130Z,1999.90
2019-01-29T13:47:54.452Z,1999.90
2019-01-29T13:50:41.002Z,1999.90
2019-01-29T13:53:09.382Z,1999.90
2019-01-29T13:55:37.741Z,1999.90
2019-01-29T13:58:07.484Z,1999.90
2019-01-29T14:00:38.097Z,1999.90
2019-01-29T14:03:08.409Z,1999.90
2019-01-29T14:05:36.772Z,1999.90
2019-01-29T14:08:05.664Z,1999.90
2019-01-29T14:10:33.965Z,1999.90
2019-01-29T14:13:02.278Z,1999.90
2019-01-29T14:15:44.119Z,1999.90
2019-01-29T14:18:12.976Z,1999.90
2019-01-29T14:20:41.285Z,1999.90
2019-01-29T14:23:09.860Z,1999.90
2019-01-29T14:25:38.516Z,1999.90
2019-01-29T14:28:07.331Z,1999.90
2019-01-29T14:30:35.709Z,1999.90
2019-01-29T14:33:04.660Z,1999.90
2019-01-29T14:35:33.288Z,1999.90
2019-01-29T14:38:07.778Z,1999.90
2019-01-29T14:40:36.086Z,1999.90
2019-01-29T14:43:06.684Z,1999.90
2019-01-29T14:45:35.224Z,1999.90
2019-01-29T14:48:03.924Z,1999.90
2019-01-29T14:50:32.475Z,1999.90
2019-01-29T14:53:01.639Z,1999.90
2019-01-29T14:55:29.926Z,1999.90
2019-01-29T14:57:58.240Z,1999.90
2019-01-29T15:00:29.826Z,1999.90
2019-01-29T15:02:58.373Z,1999.90
2019-01-29T15:05:26.756Z,1999.90
2019-01-29T15:07:55.062Z,1999.90
2019-01-29T15:10:25.148Z,1999.90
2019-01-29T15:12:53.455Z,1999.90
2019-01-29T15:15:29.965Z,1999.90
2019-01-29T15:18:14.762Z,1999.90
2019-01-29T15:20:43.075Z,1999.90
2019-01-29T15:23:11.434Z,1999.90
2019-01-29T15:25:39.742Z,1999.90
2019-01-29T15:28:08.388Z,1999.90
2019-01-29T15:30:37.007Z,1999.90
2019-01-29T15:33:05.469Z,1999.90
2019-01-29T15:35:34.066Z,1999.90
2019-01-29T15:38:02.399Z,1999.90
2019-01-29T15:40:30.778Z,1999.90
2019-01-29T15:42:59.204Z,1999.90
2019-01-29T15:45:30.393Z,1999.90
2019-01-29T15:47:58.957Z,1999.90
2019-01-29T15:50:30.993Z,1999.90
2019-01-29T15:52:59.610Z,1999.90
2019-01-29T15:55:27.999Z,1999.90
2019-01-29T15:57:56.425Z,1999.90
2019-01-29T16:00:38.117Z,1999.90
2019-01-29T16:03:06.482Z,1999.90
2019-01-29T16:05:36.522Z,1999.90
2019-01-29T16:08:07.896Z,1999.90
2019-01-29T16:10:43.607Z,1999.90
2019-01-29T16:13:12.227Z,1999.90
2019-01-29T16:15:40.836Z,1999.90
2019-01-29T16:18:09.272Z,1999.90
2019-01-29T16:20:37.641Z,1999.90
2019-01-29T16:23:06.212Z,1999.90
2019-01-29T16:25:36.310Z,1999.90
2019-01-29T16:28:04.976Z,1999.90
2019-01-29T16:30:38.306Z,1999.90
2019-01-29T16:33:06.782Z,1999.90
2019-01-29T16:35:37.635Z,1999.90
2019-01-29T16:38:07.070Z,1999.90
2019-01-29T16:40:38.564Z,1999.90
2019-01-29T16:43:06.878Z,1999.90
2019-01-29T16:45:38.585Z,1999.90
2019-01-29T16:48:08.787Z,1999.90
2019-01-29T16:50:37.157Z,1999.90
2019-01-29T16:53:07.706Z,1999.90
2019-01-29T16:55:36.170Z,1999.90
2019-01-29T16:58:05.412Z,1999.90
2019-01-29T17:00:36.113Z,1999.90
2019-01-29T17:03:04.663Z,1999.90
2019-01-29T17:05:33.298Z,1999.90
2019-01-29T17:08:02.089Z,1999.90
2019-01-29T17:10:34.056Z,1999.90
2019-01-29T17:13:02.604Z,1999.90
2019-01-29T17:15:32.244Z,1999.90
2019-01-29T17:18:01.576Z,1999.90
2019-01-29T17:20:38.582Z,1999.90
2019-01-29T17:23:08.184Z,1999.90
2019-01-29T17:25:36.544Z,1999.90
2019-01-29T17:28:05.005Z,1999.90
2019-01-29T17:30:38.280Z,1999.90
2019-01-29T17:33:07.134Z,1999.90
2019-01-29T17:35:36.719Z,1999.90
2019-01-29T17:38:05.174Z,1999.90
2019-01-29T17:40:33.804Z,1999.90
2019-01-29T17:43:02.169Z,1999.90
2019-01-29T17:45:36.098Z,1999.90
2019-01-29T17:48:04.732Z,1999.90
2019-01-29T17:50:35.956Z,1999.90
2019-01-29T17:53:04.598Z,1999.90
2019-01-29T17:55:34.392Z,1999.90
2019-01-29T17:58:02.858Z,1999.90
2019-01-29T18:00:33.000Z,1999.90
2019-01-29T18:03:01.343Z,1999.90
2019-01-29T18:05:29.982Z,1999.90
2019-01-29T18:07:58.599Z,1999.90
2019-01-29T18:10:27.085Z,1999.90
2019-01-29T18:12:56.422Z,1999.90
2019-01-29T18:15:29.523Z,1999.90
2019-01-29T18:24:06.903Z,1999.90
2019-01-29T18:26:35.488Z,1999.90
2019-01-29T18:29:04.015Z,1999.90
2019-01-29T18:31:32.405Z,1999.90
2019-01-29T18:34:00.938Z,15.97
2019-01-29T18:36:29.231Z,6.80
2019-01-29T19:33:37.599Z,7.33
2019-01-29T19:36:05.897Z,8.83
2019-01-29T19:38:34.174Z,7.23
2019-01-29T19:41:02.744Z,8.70
2019-01-29T19:43:31.027Z,7.37
2019-01-29T19:45:59.386Z,6.30
2019-01-29T19:48:29.784Z,10.10
2019-01-29T19:50:57.674Z,8.63
2019-01-29T19:53:25.972Z,6.40
2019-01-29T19:55:54.256Z,11.83
2019-01-29T19:58:32.120Z,7.57
2019-01-29T20:00:52.815Z,9.60
2019-01-29T20:03:21.109Z,5.83
2019-01-29T20:05:49.662Z,12.13
2019-01-29T20:08:18.363Z,8.40
2019-01-29T20:10:46.629Z,4.67
2019-01-29T20:13:15.112Z,5.43
2019-01-29T20:15:43.683Z,8.63
2019-01-29T20:18:12.090Z,6.53
2019-01-29T20:20:41.517Z,10.60
2019-01-29T20:23:11.426Z,6.40
2019-01-29T20:25:41.934Z,7.50
2019-01-29T20:28:10.291Z,7.07
2019-01-29T20:30:39.906Z,5.37
2019-01-29T20:33:09.052Z,6.17
2019-01-29T20:35:37.719Z,5.83
2019-01-29T20:38:14.638Z,8.13
2019-01-29T20:40:46.569Z,6.40
2019-01-29T20:43:14.824Z,4.10
2019-01-29T20:45:43.830Z,5.10
2019-01-29T20:48:12.084Z,4.63
2019-01-29T20:50:40.388Z,5.97
2019-01-29T20:53:08.674Z,8.70
2019-01-29T20:55:37.022Z,5.53
2019-01-29T20:58:05.638Z,7.57
2019-01-29T21:00:36.589Z,3.97
2019-01-29T21:03:05.584Z,4.03
2019-01-29T21:05:34.242Z,7.70
2019-01-29T21:08:02.518Z,5.53
2019-01-29T21:10:31.130Z,17.17
2019-01-29T21:12:59.410Z,11.87
2019-01-29T21:15:38.181Z,5.50
2019-01-29T21:17:58.835Z,8.33
2019-01-29T21:20:29.285Z,6.20
2019-01-29T21:22:57.890Z,12.50
2019-01-29T21:25:26.183Z,6.80
2019-01-29T21:27:54.878Z,5.47
2019-01-29T21:30:25.855Z,6.23
2019-01-29T21:32:54.136Z,6.57
2019-01-29T21:35:22.959Z,8.37
2019-01-29T21:37:51.647Z,7.63
2019-01-29T21:40:20.075Z,7.20
2019-01-29T21:42:48.421Z,7.23
2019-01-29T21:45:21.271Z,4.33
2019-01-29T21:47:49.605Z,5.27
2019-01-29T21:50:29.182Z,9.63
2019-01-29T21:52:57.823Z,8.53
2019-01-29T21:55:26.440Z,5.70
2019-01-29T21:57:54.784Z,8.33
2019-01-29T22:00:25.914Z,8.43
2019-01-29T22:02:54.223Z,9.20
2019-01-29T22:05:22.639Z,6.30
2019-01-29T22:07:50.890Z,12.27
2019-01-29T22:10:19.299Z,6.30
2019-01-29T22:12:47.585Z,8.07
2019-01-29T22:15:18.101Z,7.47
2019-01-29T22:17:46.469Z,9.27
2019-01-29T22:20:17.429Z,6.93
2019-01-29T22:22:45.721Z,9.10
2019-01-29T22:25:15.925Z,6.37
2019-01-29T22:27:44.477Z,8.07
2019-01-29T22:30:25.131Z,8.07
2019-01-29T22:32:53.774Z,12.37
2019-01-29T22:35:22.117Z,8.37
2019-01-29T22:37:50.668Z,6.07
2019-01-29T22:40:21.554Z,7.53
2019-01-29T22:42:49.902Z,6.07
2019-01-29T22:45:19.061Z,8.07
2019-01-29T22:47:47.425Z,10.23
2019-01-29T22:50:30.168Z,10.33
2019-01-29T22:52:58.598Z,7.10
2019-01-29T22:55:26.943Z,9.63
2019-01-29T22:57:55.564Z,7.70
2019-01-29T23:00:34.622Z,10.17
2019-01-29T23:03:03.076Z,9.23
2019-01-29T23:05:34.991Z,9.83
2019-01-29T23:08:03.356Z,8.03
2019-01-29T23:10:31.876Z,5.53
2019-01-29T23:13:00.177Z,6.77
2019-01-29T23:15:28.708Z,6.87
2019-01-29T23:17:56.996Z,9.27
2019-01-29T23:20:25.508Z,7.63
2019-01-29T23:22:53.796Z,7.83
2019-01-29T23:25:22.073Z,8.07
2019-01-29T23:27:50.370Z,6.80
2019-01-29T23:30:21.079Z,6.77
2019-01-29T23:32:49.435Z,10.83
2019-01-29T23:35:17.721Z,8.33
2019-01-29T23:37:46.303Z,6.73
2019-01-29T23:40:18.632Z,7.70
2019-01-29T23:42:46.917Z,8.40
2019-01-29T23:45:15.827Z,6.57
2019-01-29T23:47:44.121Z,9.30
2019-01-29T23:50:16.733Z,7.60
2019-01-29T23:52:45.008Z,7.27
2019-01-29T23:55:13.431Z,7.60
2019-01-29T23:57:41.976Z,11.57
